createdAt,value
2022-11-23T00:01:16.561Z,94157.00
2022-11-23T00:03:46.017Z,94164.53
2022-11-23T00:06:14.629Z,94156.47
2022-11-23T00:08:43.394Z,94148.72
2022-11-23T00:11:12.472Z,94145.50
2022-11-23T00:13:41.443Z,94124.25
2022-11-23T00:16:11.145Z,94141.50
2022-11-23T00:18:40.835Z,94139.34
2022-11-23T00:21:09.813Z,94155.13
2022-11-23T00:23:39.041Z,94145.28
2022-11-23T00:26:07.843Z,94136.00
2022-11-23T00:28:38.873Z,94148.72
2022-11-23T00:31:07.664Z,94144.94
2022-11-23T00:33:36.193Z,94150.25
2022-11-23T00:36:08.328Z,94154.81
2022-11-23T00:38:36.967Z,94133.56
2022-11-23T00:41:08.271Z,94150.84
2022-11-23T00:43:37.208Z,94150.28
2022-11-23T00:46:10.814Z,94154.56
2022-11-23T00:48:39.428Z,94154.66
2022-11-23T00:51:11.424Z,94169.56
2022-11-23T00:53:39.957Z,94150.84
2022-11-23T00:56:09.605Z,94162.16
2022-11-23T00:58:38.921Z,94167.44
2022-11-23T01:01:09.650Z,94173.03
2022-11-23T01:03:39.403Z,94180.75
2022-11-23T01:06:11.408Z,94123.47
2022-11-23T01:08:40.584Z,94168.97
2022-11-23T01:11:11.248Z,94165.19
2022-11-23T01:13:41.798Z,94165.75
2022-11-23T01:16:22.279Z,94171.34
2022-11-23T01:18:54.658Z,94168.38
2022-11-23T01:21:24.778Z,94179.31
2022-11-23T01:23:53.272Z,94185.72
2022-11-23T01:26:22.353Z,94183.91
2022-11-23T01:28:50.816Z,94183.34
2022-11-23T01:31:22.377Z,94174.31
2022-11-23T01:33:54.736Z,94175.88
2022-11-23T01:36:27.001Z,94192.38
2022-11-23T01:38:55.553Z,94191.31
2022-11-23T01:41:25.724Z,94125.59
2022-11-23T01:43:54.902Z,94191.28
2022-11-23T01:46:23.444Z,94198.25
2022-11-23T01:48:57.151Z,94167.16
2022-11-23T01:51:29.135Z,94205.81
2022-11-23T01:54:02.119Z,94161.06
2022-11-23T01:56:34.380Z,94204.13
2022-11-23T01:59:06.394Z,94212.09
2022-11-23T02:01:35.496Z,94202.75
2022-11-23T02:04:04.773Z,94214.75
2022-11-23T02:06:35.321Z,94216.41
2022-11-23T02:09:04.061Z,94217.19
2022-11-23T02:11:32.578Z,94219.84
2022-11-23T02:14:01.179Z,94220.34
2022-11-23T02:16:29.906Z,94215.81
2022-11-23T02:18:58.423Z,94220.91
2022-11-23T02:21:26.858Z,94224.66
2022-11-23T02:24:03.292Z,94188.72
2022-11-23T02:26:35.665Z,94228.63
2022-11-23T02:29:07.998Z,94224.91
2022-11-23T02:31:36.408Z,94229.97
2022-11-23T02:34:05.218Z,94229.94
2022-11-23T02:36:39.009Z,94151.19
2022-11-23T02:39:10.111Z,94219.84
2022-11-23T02:41:44.576Z,94220.34
2022-11-23T02:44:26.521Z,94194.03
2022-11-23T02:46:55.502Z,94224.84
2022-11-23T02:49:23.934Z,94220.06
2022-11-23T02:51:52.637Z,94199.13
2022-11-23T02:54:21.941Z,94223.25
2022-11-23T02:56:52.512Z,94215.72
2022-11-23T02:59:21.332Z,94225.91
2022-11-23T03:01:50.864Z,94210.38
2022-11-23T03:04:23.040Z,94197.63
2022-11-23T03:06:55.628Z,94216.53
2022-11-23T03:09:24.071Z,94148.72
2022-11-23T03:11:53.996Z,94228.28
2022-11-23T03:14:22.685Z,94230.97
2022-11-23T03:16:51.252Z,94235.00
2022-11-23T03:19:19.817Z,94230.78
2022-11-23T03:21:48.190Z,94242.44
2022-11-23T03:24:17.464Z,94235.78
2022-11-23T03:26:45.847Z,94229.66
2022-11-23T03:29:15.745Z,94236.09
2022-11-23T03:31:44.076Z,94203.88
2022-11-23T03:34:12.670Z,94204.72
2022-11-23T03:36:41.060Z,94244.09
2022-11-23T03:39:09.502Z,94245.16
2022-11-23T03:41:37.825Z,94236.91
2022-11-23T03:44:06.569Z,94236.91
2022-11-23T03:46:36.383Z,94239.56
2022-11-23T03:49:04.956Z,94243.56
2022-11-23T03:51:34.002Z,94248.63
2022-11-23T03:54:02.383Z,94250.97
2022-11-23T03:56:30.800Z,94241.97
2022-11-23T03:58:59.141Z,94243.66
2022-11-23T04:01:28.112Z,94232.97
2022-11-23T04:04:00.827Z,94244.72
2022-11-23T04:06:29.138Z,94239.38
2022-11-23T04:09:02.082Z,94235.66
2022-11-23T04:11:30.917Z,94235.66
2022-11-23T04:13:59.290Z,94249.53
2022-11-23T04:16:27.673Z,94243.66
2022-11-23T04:18:57.428Z,94246.34
2022-11-23T04:21:25.802Z,94202.16
2022-11-23T04:23:54.212Z,94235.16
2022-11-23T04:26:22.626Z,94238.06
2022-11-23T04:28:50.908Z,94239.13
2022-11-23T04:31:19.312Z,94231.88
2022-11-23T04:33:47.624Z,94236.47
2022-11-23T04:36:17.510Z,94229.81
2022-11-23T04:38:45.856Z,94233.03
2022-11-23T04:41:14.616Z,94230.06
2022-11-23T04:43:43.142Z,94226.63
2022-11-23T04:46:12.091Z,94171.81
2022-11-23T04:48:40.543Z,94220.53
2022-11-23T04:51:08.884Z,94223.44
2022-11-23T04:53:39.140Z,94216.53
2022-11-23T04:56:08.339Z,94225.06
2022-11-23T04:58:36.748Z,94216.03
2022-11-23T05:01:06.353Z,94204.84
2022-11-23T05:03:36.116Z,94229.88
2022-11-23T05:06:07.456Z,94228.31
2022-11-23T05:08:35.804Z,94234.16
2022-11-23T05:11:05.748Z,94232.56
2022-11-23T05:13:34.081Z,94228.00
2022-11-23T05:16:03.083Z,94235.00
2022-11-23T05:18:31.369Z,94230.50
2022-11-23T05:20:59.741Z,94224.31
2022-11-23T05:23:28.448Z,94239.50
2022-11-23T05:25:56.852Z,94227.75
2022-11-23T05:28:42.175Z,94223.47
2022-11-23T05:31:10.944Z,94214.44
2022-11-23T05:33:39.794Z,94218.69
2022-11-23T05:36:08.936Z,94230.34
2022-11-23T05:38:37.313Z,94225.84
2022-11-23T05:41:06.452Z,94229.91
2022-11-23T05:43:36.638Z,94213.13
2022-11-23T05:46:05.074Z,94221.63
2022-11-23T05:48:33.406Z,94222.97
2022-11-23T05:51:05.234Z,94215.03
2022-11-23T05:53:33.830Z,94219.78
2022-11-23T05:56:02.800Z,94215.28
2022-11-23T05:58:31.238Z,94221.66
2022-11-23T06:01:01.944Z,94178.25
2022-11-23T06:03:30.333Z,94210.75
2022-11-23T06:05:58.806Z,94136.22
2022-11-23T06:08:27.125Z,94210.75
2022-11-23T06:10:55.805Z,94188.13
2022-11-23T06:13:24.212Z,94232.09
2022-11-23T06:15:52.577Z,94239.81
2022-11-23T06:18:22.959Z,94237.41
2022-11-23T06:20:51.333Z,94230.13
2022-11-23T06:23:19.604Z,94229.91
2022-11-23T06:25:47.958Z,94231.56
2022-11-23T06:28:16.351Z,94231.56
2022-11-23T06:30:44.759Z,94238.50
2022-11-23T06:33:13.022Z,94234.72
2022-11-23T06:35:42.820Z,94202.50
2022-11-23T06:38:11.198Z,94238.50
2022-11-23T06:40:39.468Z,94207.56
2022-11-23T06:43:08.386Z,94242.16
2022-11-23T06:45:36.975Z,94236.28
2022-11-23T06:48:06.118Z,94227.78
2022-11-23T06:50:34.492Z,94243.53
2022-11-23T06:53:04.379Z,94246.47
2022-11-23T06:55:32.891Z,94246.47
2022-11-23T06:58:01.332Z,94248.63
2022-11-23T07:00:29.783Z,94258.75
2022-11-23T07:02:58.180Z,94230.78
2022-11-23T07:05:26.812Z,94258.22
2022-11-23T07:07:55.860Z,94216.69
2022-11-23T07:10:26.498Z,94266.47
2022-11-23T07:12:54.873Z,94263.84
2022-11-23T07:15:23.439Z,94267.00
2022-11-23T07:17:51.792Z,94260.84
2022-11-23T07:20:20.291Z,94261.88
2022-11-23T07:22:48.623Z,94264.28
2022-11-23T07:25:19.209Z,94269.34
2022-11-23T07:27:49.163Z,94229.13
2022-11-23T07:30:18.041Z,94272.03
2022-11-23T07:32:46.368Z,94260.31
2022-11-23T07:35:14.763Z,94281.09
2022-11-23T07:37:43.139Z,94293.91
2022-11-23T07:40:12.083Z,94284.81
2022-11-23T07:42:44.875Z,94282.38
2022-11-23T07:45:15.059Z,94260.56
2022-11-23T07:47:43.437Z,94259.25
2022-11-23T07:50:13.608Z,94306.38
2022-11-23T07:52:42.105Z,94304.50
2022-11-23T07:55:11.265Z,94314.63
2022-11-23T07:57:39.584Z,94306.56
2022-11-23T08:00:10.044Z,94315.69
2022-11-23T08:02:52.700Z,94306.56
2022-11-23T08:05:26.716Z,94306.03
2022-11-23T08:08:00.605Z,94263.41
2022-11-23T08:10:29.552Z,94314.03
2022-11-23T08:12:59.432Z,94310.28
2022-11-23T08:15:30.099Z,94311.59
2022-11-23T08:18:01.057Z,94310.81
2022-11-23T08:20:30.842Z,94287.09
2022-11-23T08:22:59.338Z,94297.09
2022-11-23T08:25:29.573Z,94316.69
2022-11-23T08:27:58.554Z,94313.72
2022-11-23T08:30:28.047Z,94318.50
2022-11-23T08:32:56.850Z,94322.50
2022-11-23T08:35:26.608Z,94325.72
2022-11-23T08:37:54.952Z,94324.63
2022-11-23T08:40:25.620Z,94332.63
2022-11-23T08:42:54.658Z,94329.41
2022-11-23T08:45:23.214Z,94329.66
2022-11-23T08:47:53.182Z,94338.50
2022-11-23T08:50:21.918Z,94324.31
2022-11-23T08:52:56.766Z,94295.34
2022-11-23T08:55:25.960Z,94324.59
2022-11-23T08:57:56.776Z,94336.09
2022-11-23T09:00:25.438Z,94316.59
2022-11-23T09:02:53.787Z,94337.94
2022-11-23T09:05:22.288Z,94332.03
2022-11-23T09:07:52.429Z,94343.78
2022-11-23T09:10:21.023Z,94307.00
2022-11-23T09:12:49.829Z,94324.59
2022-11-23T09:15:18.314Z,94339.47
2022-11-23T09:17:46.695Z,94340.53
2022-11-23T09:20:15.230Z,94336.19
2022-11-23T09:22:43.943Z,94343.97
2022-11-23T09:25:13.857Z,94347.94
2022-11-23T09:27:42.306Z,94353.28
2022-11-23T09:30:12.343Z,94350.91
2022-11-23T09:32:40.951Z,94356.53
2022-11-23T09:35:10.596Z,94302.25
2022-11-23T09:37:38.895Z,94344.81
2022-11-23T09:40:09.549Z,94354.97
2022-11-23T09:43:06.642Z,94321.94
2022-11-23T09:45:45.214Z,94253.31
2022-11-23T09:48:32.698Z,94359.50
2022-11-23T09:51:05.720Z,94357.06
2022-11-23T09:53:41.595Z,94359.75
2022-11-23T09:56:19.174Z,94360.03
2022-11-23T09:58:53.709Z,94352.78
2022-11-23T10:01:22.698Z,94361.34
2022-11-23T10:03:51.313Z,94348.50
2022-11-23T10:06:22.754Z,94344.75
2022-11-23T10:09:04.086Z,94350.59
2022-11-23T10:12:00.159Z,94351.91
2022-11-23T10:14:41.028Z,94351.06
2022-11-23T10:17:20.156Z,94346.53
2022-11-23T10:20:06.918Z,94320.16
2022-11-23T10:22:43.514Z,94355.31
2022-11-23T10:25:22.982Z,94347.81
2022-11-23T10:27:53.464Z,94331.84
2022-11-23T10:30:23.530Z,94312.66
2022-11-23T10:32:57.941Z,94347.00
2022-11-23T10:35:30.951Z,94347.19
2022-11-23T10:38:18.417Z,94341.28
2022-11-23T10:40:55.626Z,94337.84
2022-11-23T10:43:28.024Z,94349.84
2022-11-23T10:46:26.463Z,94339.97
2022-11-23T10:48:55.664Z,94341.84
2022-11-23T10:51:31.880Z,94338.06
2022-11-23T10:54:05.407Z,94339.41
2022-11-23T10:56:35.648Z,94340.16
2022-11-23T10:59:04.112Z,94297.03
2022-11-23T11:01:34.032Z,94322.00
2022-11-23T11:04:05.289Z,94312.41
2022-11-23T11:06:36.349Z,94326.47
2022-11-23T11:09:12.269Z,94320.88
2022-11-23T11:11:48.447Z,94333.69
2022-11-23T11:14:18.994Z,94326.22
2022-11-23T11:16:51.749Z,94324.84
2022-11-23T11:19:28.511Z,94331.50
2022-11-23T11:21:57.472Z,94329.91
2022-11-23T11:24:33.010Z,94319.75
2022-11-23T11:27:04.052Z,94325.03
2022-11-23T11:29:39.245Z,94324.72
2022-11-23T11:32:15.550Z,94328.22
2022-11-23T11:34:50.541Z,94299.16
2022-11-23T11:37:26.165Z,94298.41
2022-11-23T11:39:58.938Z,94322.28
2022-11-23T11:42:36.465Z,94229.16
2022-11-23T11:45:08.921Z,94323.34
2022-11-23T11:47:46.952Z,94314.25
2022-11-23T11:50:30.003Z,94317.47
2022-11-23T11:53:05.106Z,94321.44
2022-11-23T11:55:45.999Z,94314.72
2022-11-23T11:58:18.030Z,94310.97
2022-11-23T12:00:49.083Z,94310.16
2022-11-23T12:03:28.875Z,94310.41
2022-11-23T12:06:06.209Z,94282.44
2022-11-23T12:08:42.374Z,94311.47
2022-11-23T12:11:14.055Z,94309.59
2022-11-23T12:13:47.123Z,94310.97
2022-11-23T12:16:24.153Z,94304.00
2022-11-23T12:19:12.471Z,94306.63
2022-11-23T12:22:23.483Z,94295.31
2022-11-23T12:25:14.337Z,94289.97
2022-11-23T12:27:51.122Z,94294.78
2022-11-23T12:30:25.947Z,94297.19
2022-11-23T12:33:22.588Z,94292.84
2022-11-23T12:36:10.014Z,94297.41
2022-11-23T12:38:47.706Z,94292.03
2022-11-23T12:41:26.173Z,94283.63
2022-11-23T12:44:23.564Z,94279.59
2022-11-23T12:47:00.856Z,94268.16
2022-11-23T12:49:40.036Z,94285.69
2022-11-23T12:52:28.418Z,94287.22
2022-11-23T12:55:08.205Z,94292.63
2022-11-23T12:57:44.095Z,94288.84
2022-11-23T13:00:17.558Z,94280.59
2022-11-23T13:03:25.401Z,94280.38
2022-11-23T13:06:26.546Z,94283.16
2022-11-23T13:09:26.206Z,94285.88
2022-11-23T13:12:10.995Z,94278.41
2022-11-23T13:14:50.097Z,94272.50
2022-11-23T13:17:35.958Z,94277.28
2022-11-23T13:20:43.191Z,94280.28
2022-11-23T13:23:11.861Z,94276.91
2022-11-23T13:25:41.868Z,94274.22
2022-11-23T13:28:29.465Z,94276.03
2022-11-23T13:31:24.122Z,94276.38
2022-11-23T13:33:55.380Z,94271.59
2022-11-23T13:37:11.223Z,94259.88
2022-11-23T13:40:03.919Z,94265.78
2022-11-23T13:42:36.440Z,94256.72
2022-11-23T13:45:27.223Z,94267.34
2022-11-23T13:48:07.830Z,94259.38
2022-11-23T13:50:38.105Z,94243.19
2022-11-23T13:53:20.622Z,94251.41
2022-11-23T13:55:49.679Z,94253.34
2022-11-23T13:58:40.351Z,94242.41
2022-11-23T14:01:10.295Z,94249.13
2022-11-23T14:03:53.825Z,94243.03
2022-11-23T14:06:37.603Z,94244.91
2022-11-23T14:09:12.723Z,94245.75
2022-11-23T14:11:53.025Z,94229.22
2022-11-23T14:14:28.117Z,94239.16
2022-11-23T14:17:26.725Z,94233.00
2022-11-23T14:20:21.957Z,94240.78
2022-11-23T14:23:08.516Z,94214.22
2022-11-23T14:25:46.230Z,94238.16
2022-11-23T14:28:31.519Z,94242.22
2022-11-23T14:31:14.563Z,94209.78
2022-11-23T14:33:49.467Z,94235.84
2022-11-23T14:36:28.220Z,94238.03
2022-11-23T14:39:25.942Z,94236.97
2022-11-23T14:41:57.949Z,93974.28
2022-11-23T14:44:32.944Z,94231.41
2022-11-23T14:47:07.466Z,94124.03
2022-11-23T14:49:37.089Z,94238.97
2022-11-23T14:52:06.995Z,94236.09
2022-11-23T14:54:36.617Z,94208.69
2022-11-23T14:57:06.449Z,94237.19
2022-11-23T14:59:38.393Z,94229.19
2022-11-23T15:02:18.830Z,94212.97
2022-11-23T15:05:02.905Z,94197.59
2022-11-23T15:07:45.357Z,94221.28
2022-11-23T15:10:29.946Z,94204.56
2022-11-23T15:12:58.367Z,94207.78
2022-11-23T15:15:30.178Z,94234.72
2022-11-23T15:18:01.562Z,94224.56
2022-11-23T15:20:33.872Z,94188.88
2022-11-23T15:23:03.472Z,94226.22
2022-11-23T15:25:33.758Z,94223.81
2022-11-23T15:28:02.221Z,94216.06
2022-11-23T15:30:32.343Z,94213.19
2022-11-23T15:33:05.645Z,94218.22
2022-11-23T15:35:36.674Z,94227.84
2022-11-23T15:38:08.536Z,94230.03
2022-11-23T15:40:38.732Z,94233.78
2022-11-23T15:43:07.213Z,94225.25
2022-11-23T15:45:41.367Z,94227.41
2022-11-23T15:48:16.344Z,94226.06
2022-11-23T15:50:53.862Z,94202.13
2022-11-23T15:53:26.196Z,94221.84
2022-11-23T15:55:57.763Z,94204.53
2022-11-23T15:58:26.192Z,94237.59
2022-11-23T16:01:02.543Z,94120.41
2022-11-23T16:03:44.047Z,94214.38
2022-11-23T16:06:27.778Z,94214.41
2022-11-23T16:08:56.473Z,94208.28
2022-11-23T16:11:32.231Z,94210.41
2022-11-23T16:14:15.450Z,94218.16
2022-11-23T16:16:46.357Z,94126.28
2022-11-23T16:19:31.280Z,94207.25
2022-11-23T16:22:03.317Z,94218.97
2022-11-23T16:24:35.059Z,94109.78
2022-11-23T16:27:14.084Z,94212.28
2022-11-23T16:29:42.833Z,94218.44
2022-11-23T16:32:23.511Z,94220.56
2022-11-23T16:34:53.695Z,94228.81
2022-11-23T16:37:22.262Z,94225.63
2022-11-23T16:39:50.788Z,94230.41
2022-11-23T16:42:19.286Z,94230.69
2022-11-23T16:44:47.632Z,94228.56
2022-11-23T16:47:25.199Z,94232.84
2022-11-23T16:49:55.715Z,94236.00
2022-11-23T16:52:24.877Z,94231.22
2022-11-23T16:54:54.097Z,94232.81
2022-11-23T16:57:30.073Z,94232.56
2022-11-23T17:00:00.751Z,94209.91
2022-11-23T17:02:29.345Z,94239.22
2022-11-23T17:04:59.562Z,94217.91
2022-11-23T17:07:28.036Z,94231.22
2022-11-23T17:09:59.302Z,94219.50
2022-11-23T17:12:27.768Z,94213.09
2022-11-23T17:14:56.154Z,94225.91
2022-11-23T17:17:24.642Z,94201.91
2022-11-23T17:19:53.254Z,94200.06
2022-11-23T17:22:23.831Z,94234.41
2022-11-23T17:24:54.627Z,94233.88
2022-11-23T17:27:25.481Z,94182.75
2022-11-23T17:29:58.569Z,94204.59
2022-11-23T17:32:27.587Z,94236.28
2022-11-23T17:34:55.976Z,94216.84
2022-11-23T17:37:26.310Z,94202.72
2022-11-23T17:39:54.762Z,94234.94
2022-11-23T17:42:23.069Z,94244.03
2022-11-23T17:44:51.454Z,94246.69
2022-11-23T17:47:25.394Z,94241.59
2022-11-23T17:49:53.798Z,94257.59
2022-11-23T17:52:22.264Z,94257.88
2022-11-23T17:54:52.318Z,94273.84
2022-11-23T17:57:24.477Z,94271.19
2022-11-23T17:59:53.457Z,94268.00
2022-11-23T18:02:22.225Z,94239.72
2022-11-23T18:04:50.613Z,94275.19
2022-11-23T18:07:19.387Z,94266.66
2022-11-23T18:09:49.100Z,94255.72
2022-11-23T18:12:19.406Z,94291.44
2022-11-23T18:14:48.076Z,94297.81
2022-11-23T18:17:17.716Z,94296.25
2022-11-23T18:19:47.521Z,94295.19
2022-11-23T18:22:17.347Z,94291.41
2022-11-23T18:24:50.287Z,94298.38
2022-11-23T18:27:23.660Z,94302.66
2022-11-23T18:29:54.164Z,94313.56
2022-11-23T18:32:24.896Z,94318.09
2022-11-23T18:34:53.321Z,94320.25
2022-11-23T18:37:21.714Z,94321.31
2022-11-23T18:39:50.772Z,94330.38
2022-11-23T18:42:21.548Z,94306.63
2022-11-23T18:44:50.208Z,94324.50
2022-11-23T18:47:18.560Z,94282.91
2022-11-23T18:49:47.541Z,94295.19
2022-11-23T18:52:18.088Z,94300.00
2022-11-23T18:54:46.858Z,94296.22
2022-11-23T18:57:17.367Z,94310.63
2022-11-23T18:59:57.914Z,94310.13
2022-11-23T19:02:28.055Z,94310.66
2022-11-23T19:04:58.139Z,94303.97
2022-11-23T19:07:27.962Z,94317.03
2022-11-23T19:09:58.634Z,94325.56
2022-11-23T19:12:29.171Z,94238.94
2022-11-23T19:15:03.625Z,94321.56
2022-11-23T19:17:33.948Z,94319.16
2022-11-23T19:20:09.099Z,94326.88
2022-11-23T19:22:38.917Z,94335.44
2022-11-23T19:25:08.750Z,94328.50
2022-11-23T19:27:38.937Z,94327.16
2022-11-23T19:30:11.959Z,94300.75
2022-11-23T19:32:41.679Z,94312.50
2022-11-23T19:35:11.604Z,94336.47
2022-11-23T19:37:41.330Z,94335.69
2022-11-23T19:40:13.156Z,94341.28
2022-11-23T19:42:45.664Z,94336.50
2022-11-23T19:45:19.505Z,94339.97
2022-11-23T19:47:49.405Z,94315.66
2022-11-23T19:50:20.920Z,94342.34
2022-11-23T19:53:11.338Z,94347.69
2022-11-23T19:55:38.255Z,94285.53
2022-11-23T19:58:06.975Z,94345.84
2022-11-23T20:00:37.271Z,94345.00
2022-11-23T20:03:05.944Z,94360.72
2022-11-23T20:05:34.782Z,94358.84
2022-11-23T20:08:03.549Z,94344.75
2022-11-23T20:10:32.293Z,94354.38
2022-11-23T20:13:06.395Z,94361.28
2022-11-23T20:15:37.706Z,94351.69
2022-11-23T20:18:14.423Z,94353.31
2022-11-23T20:20:48.808Z,94361.81
2022-11-23T20:23:21.630Z,94362.34
2022-11-23T20:25:54.379Z,94373.28
2022-11-23T20:28:26.876Z,94368.75
2022-11-23T20:30:59.274Z,94374.56
2022-11-23T20:33:31.659Z,94375.41
2022-11-23T20:36:12.551Z,94370.84
2022-11-23T20:38:42.831Z,94373.53
2022-11-23T20:41:18.344Z,94385.25
2022-11-23T20:43:49.307Z,94383.41
2022-11-23T20:46:38.611Z,94394.31
2022-11-23T20:49:22.861Z,94382.06
2022-11-23T20:51:53.714Z,94359.09
2022-11-23T20:54:25.496Z,94396.19
2022-11-23T20:56:58.510Z,94404.72
2022-11-23T20:59:29.914Z,94396.16
2022-11-23T21:02:01.492Z,94403.91
2022-11-23T21:04:31.080Z,94414.84
2022-11-23T21:07:00.826Z,94378.03
2022-11-23T21:09:29.960Z,94402.88
2022-11-23T21:12:16.968Z,94407.66
2022-11-23T21:14:45.872Z,94410.09
2022-11-23T21:17:17.764Z,94402.34
2022-11-23T21:19:47.588Z,94422.09
2022-11-23T21:22:19.077Z,94425.03
2022-11-23T21:24:48.944Z,94422.66
2022-11-23T21:27:20.319Z,94410.91
2022-11-23T21:29:51.984Z,94411.97
2022-11-23T21:32:23.421Z,94388.50
2022-11-23T21:34:52.955Z,94425.34
2022-11-23T21:37:23.091Z,94425.88
2022-11-23T21:39:53.180Z,94432.25
2022-11-23T21:42:21.738Z,94429.03
2022-11-23T21:44:50.089Z,94433.84
2022-11-23T21:47:18.727Z,94445.34
2022-11-23T21:49:48.576Z,94441.59
2022-11-23T21:52:17.268Z,94441.59
2022-11-23T21:54:49.010Z,94456.28
2022-11-23T21:57:17.757Z,94447.22
2022-11-23T21:59:46.012Z,94436.00
2022-11-23T22:02:14.947Z,94461.06
2022-11-23T22:04:43.466Z,94468.53
2022-11-23T22:07:13.441Z,94459.75
2022-11-23T22:09:41.878Z,94462.94
2022-11-23T22:12:10.446Z,94483.47
2022-11-23T22:14:39.331Z,94371.34
2022-11-23T22:17:07.874Z,94421.00
2022-11-23T22:19:36.383Z,94489.31
2022-11-23T22:22:06.585Z,94403.91
2022-11-23T22:24:36.507Z,94477.59
2022-11-23T22:27:05.144Z,94488.25
2022-11-23T22:29:33.450Z,94493.59
2022-11-23T22:32:02.183Z,94511.75
2022-11-23T22:34:35.518Z,94488.47
2022-11-23T22:37:10.175Z,94520.78
2022-11-23T22:39:40.719Z,94542.13
2022-11-23T22:42:09.186Z,94538.38
2022-11-23T22:44:38.590Z,94435.84
2022-11-23T22:47:07.640Z,94548.28
2022-11-23T22:49:36.035Z,94556.22
2022-11-23T22:52:04.906Z,94553.84
2022-11-23T22:54:33.432Z,94557.03
2022-11-23T22:57:04.151Z,94551.19
2022-11-23T22:59:32.541Z,94559.69
2022-11-23T23:02:01.318Z,94565.03
2022-11-23T23:04:29.739Z,94562.13
2022-11-23T23:06:58.147Z,94559.47
2022-11-23T23:09:26.547Z,94560.28
2022-11-23T23:11:55.071Z,94555.97
2022-11-23T23:14:25.657Z,94551.97
2022-11-23T23:16:54.715Z,94549.56
2022-11-23T23:19:23.454Z,94484.63
2022-11-23T23:21:51.850Z,94555.47
2022-11-23T23:24:20.606Z,94562.66
2022-11-23T23:26:49.329Z,94555.97
2022-11-23T23:29:17.617Z,94550.13
2022-11-23T23:31:47.625Z,94551.16
2022-11-23T23:34:16.055Z,94537.25
2022-11-23T23:36:44.555Z,94563.09
2022-11-23T23:39:13.824Z,94561.25
2022-11-23T23:41:42.555Z,94569.31
2022-11-23T23:44:10.963Z,94567.13
2022-11-23T23:46:39.511Z,94572.72
2022-11-23T23:49:09.343Z,94571.38
2022-11-23T23:51:37.723Z,94570.06
2022-11-23T23:54:06.499Z,94579.41
2022-11-23T23:56:34.865Z,94579.41
2022-11-23T23:59:03.322Z,94579.91
